Boynton Beach, FL (33437)

10:14 AM EST on January 26, 2015 (GMT -0500)
Pipers Glen Estates | Change Station
CLOSE
Current Station
Personal Weather Station
Location: Boynton Beach, FL
Elevation: 27 ft
Nearby Weather Stations

Elev 27 ft 26.49 °N, 80.14 °W | Updated 9 seconds ago

Overcast
Overcast
65.1 °F
Feels Like 65.1 °F
N
7.6
Wind Variable Wind from NW
Gusts 10.1 mph

Today
High -- | Low -- °F
--% Chance of Precip.
Yesterday
High -- | Low -- °F
Precip. -- in
7:08 AM 5:58 PM
Waxing Crescent, 44% visible
Pressure 29.95 in
Visibility 6.0 miles
Clouds Scattered Clouds 1800 ft
Mostly Cloudy 2900 ft
Mostly Cloudy 6500 ft
Dew Point 59 °F
Humidity 80%
Rainfall 0.00 in
Snow Depth Not available.
UV 2 out of 12
Pollen 7.10 out of 12
Air Quality Not available.
Flu Activity Not available.
SPECI KPBI 261507Z 28012KT 6SM -RA BR SCT018 BKN029CB BKN065 17/15 A2995 RMK AO2 WSHFT 1440 CB OHD-SE MOV SE P0003 T01670150

More Conditions Fewer Conditions

Pressure 29.95 in
Visibility 6.0 miles
Clouds Scattered Clouds 1800 ft
Mostly Cloudy 2900 ft
Mostly Cloudy 6500 ft
Dew Point 59 °F
Humidity 80%
Rainfall 0.00 in
Snow Depth Not available.
UV 2 out of 12
Pollen 7.10 out of 12
Air Quality Not available.
Flu Activity Not available.
SPECI KPBI 261507Z 28012KT 6SM -RA BR SCT018 BKN029CB BKN065 17/15 A2995 RMK AO2 WSHFT 1440 CB OHD-SE MOV SE P0003 T01670150

More Conditions Fewer Conditions

Nowcast | as of 10:12 am EST on January 26, 2015

Showers were moving quickly eastward into the East Coast Metro areas this morning. Gusty winds up to 35 mph and brief heavy downpours will accompany these showers. Rainfall will end around noon...with breezy to windy conditions continuing through the afternoon.

×

10-Day Weather Forecast

Almanac

Astronomy

Jan. 26, 2015 Rise Set
Actual Time
Civil Twilight
Nautical Twilight
Astronomical Twilight
Moon
Length of Visible Light
Length of Day
Tomorrow will be .
, % of the Moon is Illuminated

Today's Extremes

State Highs State Lows

Community

WunderPhotos

Upload Photos

1,790,234 photos uploaded!

WunderBlogs® & News

Nearby

Air Quality

  Air Quality AQ Index Pollutant
Not available.

Snow Depth

Station Depth Elevation

Earthquake Activity

City Distance Mag. Time & Date
Minimum magnitude displayed is 2.5.

Coastal Water Temperatures

Place Temperature

Nearby Weather Stations